AirNav   Air Wisconsin Airman Trainee
 
 1038 users online  

OG30 Aeroacres Airport
Oregon City, Oregon, USA

GOING TO OREGON CITY?


FAA INFORMATION EFFECTIVE 31 JANUARY 2019

Location

FAA Identifier: OG30
Lat/Long: 45-18-59.4360N / 122-36-19.3280W
45-18.990600N / 122-36.322133W
45.3165100 / -122.6053689
(estimated)
Elevation: 420 ft. / 128 m (estimated)
Variation: 19E (1985)
From city: 3 miles S of OREGON CITY, OR
Time zone: UTC -8 (UTC -7 during Daylight Saving Time)
Zip code: 97045

Airport Operations

Airport use: Private use. Permission required prior to landing
Activation date: 08/1970
Control tower: no
ARTCC: SEATTLE CENTER
FSS: MC MINNVILLE FLIGHT SERVICE STATION
Attendance: UNATNDD
Wind indicator: yes
Segmented circle: no

Airport Communications

WX ASOS at UAO (8 nm SW): PHONE 503-678-3011
WX ASOS at PDX (16 nm N): PHONE (503) 493-7687
WX ASOS at TTD (16 nm NE): 135.625 (503-492-2887)
WX ASOS at VUO (18 nm N): 135.125 (360-696-1280)
WX ASOS at HIO (20 nm NW): PHONE 503-640-2984

Nearby radio navigation aids

VOR radial/distance  VOR name  Freq  Var
UBGr077/15.9NEWBERG VOR/DME117.4021E
BTGr160/25.9BATTLE GROUND VORTAC116.6021E

 
NDB name  Hdg/Dist  Freq  Var  ID
BANKS119/26.435616EPND .--. -. -..

Airport Services

Parking: hangars
Airframe service: MAJOR
Powerplant service: MAJOR
Bottled oxygen: NONE
Bulk oxygen: NONE

Runway Information

Runway 4/22

Dimensions: 1800 x 250 ft. / 549 x 76 m
Surface: turf
RUNWAY 4  RUNWAY 22
Traffic pattern: leftleft
Obstructions: pline, 300 ft. from runway, 20:1 slope to clearroad, 15 ft. from runway, 1:1 slope to clear

Airport Ownership and Management from official FAA records

Ownership: Privately-owned
Owner: HENRY PFLEGL
20001 S LELAND ROAD 2001
OREGON CITY, OR 97045
Phone 503-656-9675
Manager: HENRY PFLEGL
20001 S LELAND ROAD 2001
OREGON CITY, OR 97045
Phone 503-656-9675

Airport Operational Statistics

Aircraft based on the field: 3
Single engine airplanes: 3
    

Additional Remarks

FOR CD CTC PORTLAND APCH AT 503-493-7545.

Instrument Procedures

There are no published instrument procedures at OG30.

Some nearby airports with instrument procedures:

KUAO - Aurora State Airport (8 nm SW)
KPDX - Portland International Airport (16 nm N)
KTTD - Portland-Troutdale Airport (16 nm NE)
KVUO - Pearson Field Airport (18 nm N)
KHIO - Portland-Hillsboro Airport (20 nm NW)
 
Loc | Ops | Rwys | IFR | FBO | Links
Com | Nav | Svcs | Stats | Notes
Area around OG30 (Aeroacres Airport)
 
Road maps at: MapQuest Bing Google
 
Aerial photo
WARNING: Photo may not be current or correct
Aerial photo of OG30 (Aeroacres Airport)
Do you have a better or more recent aerial photo of Aeroacres Airport that you would like to share? If so, please send us your photo.

 
Sectional chart

 
Airport distance calculator
Flying to Aeroacres Airport? Find the distance to fly.

From to OG30

Sunrise and sunset
Times for 17-Feb-2019
 Local
(UTC-8)
 Zulu
(UTC)
Morning civil twilight06:3914:39
Sunrise07:1015:10
Sunset17:3901:39
Evening civil twilight18:1002:10

Current date and time
Zulu (UTC)  17-Feb-2019 17:08:18
Local (UTC-8)  17-Feb-2019 09:08:18
 
METAR
KUAO 
8nm SW 
171653Z 36003KT 10SM BKN015 OVC037 03/02 A3014 RMK AO2 SLP206 T00280017
KPDX 
16nm N 
171653Z 00000KT 10SM FEW008 BKN021 03/01 A3014 RMK AO2 SLP205 T00330011
KTTD 
16nm NE 
171700Z 00000KT 10SM SCT007 BKN010 BKN045 03/02 A3014 RMK AO2 T00330017
KVUO 
18nm N 
171653Z AUTO 00000KT 10SM OVC021 03/01 A3013 RMK AO2 SLP204 T00330011
TAF
KUAO 
8nm SW 
171405Z 1714/1812 00000KT P6SM OVC008 FM171700 00000KT P6SM OVC010 FM172100 36003KT P6SM SCT010 FM180600 00000KT P6SM BKN040
KPDX 
16nm N 
171451Z 1715/1812 VRB03KT P6SM BKN018 OVC025 FM171800 VRB03KT P6SM SCT018 OVC025 FM172100 35004KT P6SM SCT025 FM180600 VRB03KT P6SM BKN050
KTTD 
16nm NE 
171143Z 1712/1812 00000KT 4SM BR SCT015 OVC025 FM171400 00000KT P6SM SCT007 OVC015 FM171900 35003KT P6SM SCT012 FM180600 08002KT P6SM BKN040
NOTAMs
Click for the latest NOTAMs
NOTAMs are issued by the DoD/FAA and will open in a separate window not controlled by AirNav.

 

 
 

Would you like to see your business listed on this page?

 If your business provides an interesting product or service to pilots, flight crews, aircraft, or users of the Aeroacres Airport, you should consider listing it here.  To start the listing process, click on the button below
 
Add a business
 

Other Pages about Aeroacres Airport

Update a link
 
Copyright © AirNav, LLC. All rights reserved. Privacy Policy  Contact